Time;durP1;ratioP1;P1;durP2;ratioP2;P2;SDS_P1;SDS_P2;PMS_P1;PMS_P2;Temp;Humidity;BMP_temperature;BMP_pressure;BME280_temperature;BME280_humidity;BME280_pressure;Samples;Min_cycle;Max_cycle;Signal;HPM_P1;HPM_P2
2022/11/14 00:02:08;;;;;;;6.27;3.77;;;2.00;99.90;;;2.86;100.00;98108.84;5018973;28;20474;-84
2022/11/14 00:04:38;;;;;;;7.30;3.90;;;2.00;99.90;;;2.90;100.00;98106.81;5019802;28;20474;-84
2022/11/14 00:07:09;;;;;;;6.40;3.90;;;2.00;99.90;;;2.75;100.00;98103.00;5015892;28;20549;-84
2022/11/14 00:09:41;;;;;;;5.43;3.63;;;1.80;99.90;;;2.73;100.00;98099.75;5018777;28;20509;-84
2022/11/14 00:12:12;;;;;;;6.77;3.40;;;1.80;99.90;;;2.75;100.00;98098.66;5016039;28;20509;-83
2022/11/14 00:14:42;;;;;;;9.60;4.20;;;1.90;99.90;;;2.74;100.00;98088.50;5018260;28;20469;-84
2022/11/14 00:17:13;;;;;;;5.80;3.83;;;1.90;99.90;;;2.60;100.00;98092.31;5018167;28;20896;-84
2022/11/14 00:19:42;;;;;;;6.03;3.50;;;1.70;99.90;;;2.64;100.00;98085.09;5016661;28;20991;-83
2022/11/14 00:22:12;;;;;;;7.80;3.83;;;1.80;99.90;;;2.69;100.00;98082.91;5017857;28;20725;-84
2022/11/14 00:24:41;;;;;;;7.63;3.60;;;1.80;99.90;;;2.62;100.00;98077.50;5015942;28;20547;-85
2022/11/14 00:27:11;;;;;;;7.00;3.50;;;1.70;99.90;;;2.59;100.00;98076.94;5015850;28;20477;-84
2022/11/14 00:29:41;;;;;;;4.93;3.40;;;1.70;99.90;;;2.60;100.00;98073.41;5015597;28;20883;-84
2022/11/14 00:32:11;;;;;;;6.30;3.63;;;1.70;99.90;;;2.63;100.00;98073.16;5014855;28;20469;-84
2022/11/14 00:34:41;;;;;;;14.07;3.60;;;1.70;99.90;;;2.58;100.00;98081.28;5018453;28;20465;-84
2022/11/14 00:37:10;;;;;;;4.43;3.53;;;1.70;99.90;;;2.59;100.00;98066.63;5017372;28;20933;-84
2022/11/14 00:39:39;;;;;;;7.17;3.87;;;1.70;99.90;;;2.45;100.00;98070.44;5018443;28;20559;-84
2022/11/14 00:42:09;;;;;;;5.67;3.80;;;1.50;99.90;;;2.51;100.00;98070.69;5018919;28;20505;-84
2022/11/14 00:44:39;;;;;;;5.27;3.70;;;1.60;99.90;;;2.51;100.00;98070.69;5019830;28;20468;-84
2022/11/14 00:47:08;;;;;;;4.93;3.03;;;1.60;99.90;;;2.50;100.00;98069.06;5019293;28;20468;-84
2022/11/14 00:49:38;;;;;;;6.43;3.60;;;1.60;99.90;;;2.38;100.00;98065.00;5021796;28;20456;-84
2022/11/14 00:52:08;;;;;;;5.20;3.87;;;1.40;99.90;;;2.36;100.00;98072.03;5020334;28;20474;-84
2022/11/14 00:54:37;;;;;;;4.90;3.70;;;1.40;99.90;;;2.43;100.00;98062.03;5018073;28;20469;-84
2022/11/14 00:57:06;;;;;;;4.83;3.67;;;1.50;99.90;;;2.46;100.00;98059.16;5017183;28;20478;-84
2022/11/14 00:59:36;;;;;;;4.03;3.37;;;1.60;99.90;;;2.44;100.00;98054.13;5020843;28;20462;-83
2022/11/14 01:02:05;;;;;;;5.20;3.40;;;1.60;99.90;;;2.44;100.00;98051.53;5020477;28;20500;-84
2022/11/14 01:04:36;;;;;;;8.03;3.93;;;1.60;99.90;;;2.44;100.00;98048.97;5019141;28;20516;-84
2022/11/14 01:07:06;;;;;;;6.50;3.60;;;1.60;99.90;;;2.46;100.00;98043.69;5022223;28;20464;-84
2022/11/14 01:09:36;;;;;;;5.23;3.53;;;1.60;99.90;;;2.39;100.00;98040.84;5021157;28;20466;-82
2022/11/14 01:12:06;;;;;;;3.90;3.00;;;1.50;99.90;;;2.38;100.00;98040.97;5020796;28;20477;-84
2022/11/14 01:14:35;;;;;;;3.93;3.13;;;1.50;99.90;;;2.34;100.00;98043.00;5020336;28;20470;-84
2022/11/14 01:17:04;;;;;;;6.87;3.57;;;1.50;99.90;;;2.39;100.00;98040.84;5020201;28;20968;-84
2022/11/14 01:19:34;;;;;;;8.33;3.60;;;1.50;99.90;;;2.35;100.00;98041.22;5018595;28;20459;-84
2022/11/14 01:22:07;;;;;;;7.30;4.17;;;1.40;99.90;;;2.37;100.00;98040.13;5019733;28;20488;-84
2022/11/14 01:24:35;;;;;;;5.70;3.83;;;1.50;99.90;;;2.36;100.00;98032.56;5020047;28;20514;-84
2022/11/14 01:27:05;;;;;;;4.00;3.47;;;1.40;99.90;;;2.37;100.00;98029.81;5020190;28;20483;-84
2022/11/14 01:29:34;;;;;;;3.90;3.50;;;1.50;99.90;;;2.28;100.00;98024.66;5018336;28;20485;-84
2022/11/14 01:32:03;;;;;;;3.73;3.07;;;1.30;99.90;;;2.29;100.00;98014.19;5018753;28;21271;-84
2022/11/14 01:34:32;;;;;;;4.90;3.27;;;1.40;99.90;;;2.31;100.00;98014.88;5022354;28;20965;-84
2022/11/14 01:37:02;;;;;;;7.73;3.40;;;1.40;99.90;;;2.32;100.00;98008.78;5019367;28;20484;-84
2022/11/14 01:39:32;;;;;;;6.57;4.17;;;1.50;99.90;;;2.33;100.00;98009.56;5017880;28;20547;-84
2022/11/14 01:42:01;;;;;;;4.90;3.07;;;1.50;99.90;;;2.25;100.00;98012.88;5019473;28;20497;-84
2022/11/14 01:44:47;;;;;;;6.20;3.47;;;1.40;99.90;;;2.31;100.00;98011.50;5019937;28;20568;-84
2022/11/14 01:47:24;;;;;;;4.53;3.17;;;1.40;99.90;;;2.28;100.00;98017.75;5017676;28;20919;-84
2022/11/14 01:49:59;;;;;;;5.17;3.50;;;1.50;99.90;;;2.25;100.00;98012.88;5017307;28;20550;-84
2022/11/14 01:52:35;;;;;;;6.37;3.33;;;1.40;99.90;;;2.26;100.00;98011.88;5021181;28;20551;-84
2022/11/14 01:55:09;;;;;;;4.50;3.43;;;1.40;99.90;;;2.24;100.00;98000.91;5020376;28;20564;-84
2022/11/14 01:57:44;;;;;;;4.83;3.50;;;1.40;99.90;;;2.23;100.00;98013.94;5018890;28;20471;-84
2022/11/14 02:00:16;;;;;;;9.20;3.70;;;1.40;99.90;;;2.25;100.00;98009.47;5017992;28;20465;-84
2022/11/14 02:02:47;;;;;;;3.90;2.90;;;1.40;99.90;;;2.26;100.00;98014.47;5021020;28;20497;-84
2022/11/14 02:05:19;;;;;;;5.67;3.63;;;1.40;99.90;;;2.23;100.00;98014.75;5016910;28;20475;-83
2022/11/14 02:07:50;;;;;;;4.40;2.83;;;1.40;99.90;;;2.15;100.00;98009.47;5018867;28;20478;-84
2022/11/14 02:10:21;;;;;;;13.20;5.13;;;1.30;99.90;;;2.12;100.00;98007.13;5020098;28;20463;-84
2022/11/14 02:12:52;;;;;;;6.00;3.73;;;1.30;99.90;;;2.15;100.00;98006.06;5018497;28;20542;-84
2022/11/14 02:15:21;;;;;;;3.47;3.13;;;1.40;99.90;;;2.16;100.00;98003.34;5020336;28;20466;-84
2022/11/14 02:17:50;;;;;;;6.00;2.70;;;1.30;99.90;;;2.08;100.00;97997.25;5018928;28;21042;-84
2022/11/14 02:20:27;;;;;;;7.10;3.80;;;1.20;99.90;;;1.96;100.00;98001.72;5019914;28;20876;-84
2022/11/14 02:22:57;;;;;;;7.60;4.23;;;1.00;99.90;;;1.97;100.00;97993.03;5016850;28;20491;-84
2022/11/14 02:25:26;;;;;;;6.60;3.73;;;1.00;99.90;;;1.99;100.00;97991.94;5021830;28;20467;-84
2022/11/14 02:27:57;;;;;;;5.90;3.60;;;1.10;99.90;;;2.00;100.00;97997.91;5016467;28;20548;-83
2022/11/14 02:30:26;;;;;;;5.20;3.00;;;1.10;99.90;;;1.98;100.00;97992.88;5015541;28;20552;-84
2022/11/14 02:32:55;;;;;;;7.40;4.03;;;1.10;99.90;;;2.01;100.00;97984.09;5017281;28;20494;-84
2022/11/14 02:35:40;;;;;;;3.33;2.90;;;1.10;99.90;;;2.05;100.00;97982.84;5017806;28;20489;-83
2022/11/14 02:38:09;;;;;;;5.20;3.17;;;1.10;99.90;;;2.07;100.00;97978.38;5018391;28;20491;-84
2022/11/14 02:40:39;;;;;;;6.77;3.20;;;1.20;99.90;;;2.09;100.00;97976.47;5019059;28;20559;-83
2022/11/14 02:43:09;;;;;;;6.17;3.10;;;1.20;99.90;;;2.14;100.00;97979.47;5021252;28;20499;-84
2022/11/14 02:45:39;;;;;;;4.40;3.00;;;1.30;99.90;;;2.19;100.00;97977.28;5018514;28;20502;-84
2022/11/14 02:48:07;;;;;;;5.33;3.47;;;1.30;99.90;;;2.21;100.00;97965.06;5018878;28;20497;-84
2022/11/14 02:50:36;;;;;;;4.50;3.10;;;1.30;99.90;;;2.23;100.00;97967.50;5019869;28;20488;-85
2022/11/14 02:53:07;;;;;;;6.33;3.70;;;1.40;99.90;;;2.23;100.00;97973.47;5019979;28;20496;-84
2022/11/14 02:55:36;;;;;;;6.80;3.70;;;1.40;99.90;;;2.27;100.00;97974.03;5019287;28;20472;-83
2022/11/14 02:58:06;;;;;;;5.60;3.30;;;1.50;99.90;;;2.31;100.00;97965.88;5018263;28;20549;-83
2022/11/14 03:00:36;;;;;;;6.20;3.70;;;1.60;99.90;;;2.38;100.00;97968.72;5017113;28;20466;-84
2022/11/14 03:03:26;;;;;;;3.83;3.17;;;1.70;99.90;;;2.42;100.00;97964.91;5017846;28;20495;-84
2022/11/14 03:06:00;;;;;;;5.40;4.07;;;1.70;99.90;;;2.45;100.00;97957.72;5015545;28;20483;-84
2022/11/14 03:08:30;;;;;;;6.90;3.37;;;1.80;99.90;;;2.48;100.00;97959.19;5018020;28;20493;-84
2022/11/14 03:11:06;;;;;;;4.13;3.33;;;1.80;99.90;;;2.52;100.00;97948.47;5015437;28;21068;-84
2022/11/14 03:13:37;;;;;;;4.43;3.27;;;1.80;99.90;;;2.57;100.00;97949.81;5019573;28;20464;-84
2022/11/14 03:16:08;;;;;;;4.87;3.43;;;1.90;99.90;;;2.61;100.00;97951.16;5018194;28;21012;-83
2022/11/14 03:18:37;;;;;;;5.73;4.03;;;1.90;99.90;;;2.63;100.00;97944.09;5014903;28;20643;-84
2022/11/14 03:21:10;;;;;;;3.60;3.30;;;1.90;99.90;;;2.63;100.00;97936.34;5017884;28;20542;-84
2022/11/14 03:23:41;;;;;;;4.43;3.07;;;2.00;99.90;;;2.62;100.00;97938.13;5018576;28;20572;-84
2022/11/14 03:26:13;;;;;;;5.90;3.70;;;2.10;99.90;;;2.66;100.00;97928.31;5017781;28;20557;-84
2022/11/14 03:28:43;;;;;;;4.77;3.13;;;2.00;99.90;;;2.67;100.00;97919.63;5017803;28;20974;-84
2022/11/14 03:31:14;;;;;;;3.57;2.93;;;2.00;99.90;;;2.72;100.00;97917.44;5018238;28;20462;-83
2022/11/14 03:33:45;;;;;;;5.93;3.87;;;2.00;99.90;;;2.75;100.00;97922.31;5017558;28;20475;-84
2022/11/14 03:36:14;;;;;;;4.30;2.97;;;2.00;99.90;;;2.78;100.00;97919.44;5015271;28;20475;-84
2022/11/14 03:38:46;;;;;;;4.23;3.80;;;2.10;99.90;;;2.82;100.00;97918.22;5017169;28;20473;-85
2022/11/14 03:41:16;;;;;;;6.60;3.80;;;2.10;99.90;;;2.80;100.00;97918.38;5014983;28;20453;-84
2022/11/14 03:43:46;;;;;;;4.10;3.00;;;2.10;99.90;;;2.84;100.00;97921.47;5015820;28;20504;-84
2022/11/14 03:46:16;;;;;;;6.37;4.07;;;2.10;99.90;;;2.88;100.00;97917.66;5016746;28;20472;-84
2022/11/14 03:48:45;;;;;;;6.07;3.57;;;2.20;99.90;;;2.91;100.00;97909.63;5015910;28;20466;-84
2022/11/14 03:51:14;;;;;;;4.83;3.57;;;2.20;99.90;;;2.89;100.00;97920.09;5018811;28;20461;-84
2022/11/14 03:53:45;;;;;;;6.50;4.10;;;2.10;99.90;;;2.91;100.00;97918.19;5018651;28;20979;-84
2022/11/14 03:56:14;;;;;;;8.67;3.00;;;2.20;99.90;;;2.95;100.00;97910.97;5019929;28;20483;-87
2022/11/14 03:58:44;;;;;;;4.80;4.00;;;2.20;99.90;;;2.99;100.00;97907.13;5016808;28;20466;-87
2022/11/14 04:01:14;;;;;;;6.87;3.30;;;2.30;99.90;;;3.01;100.00;97916.38;5018025;28;20506;-87
2022/11/14 04:03:43;;;;;;;7.20;3.70;;;2.30;99.90;;;3.06;100.00;97915.94;5018749;28;20526;-87
2022/11/14 04:06:15;;;;;;;5.67;3.40;;;2.40;99.90;;;3.07;100.00;97912.41;5017296;28;20519;-86
2022/11/14 04:08:46;;;;;;;4.53;3.60;;;2.40;99.90;;;3.09;100.00;97915.63;5019721;28;20513;-87
2022/11/14 04:11:16;;;;;;;4.83;3.70;;;2.40;99.90;;;3.12;100.00;97910.22;5018207;28;20549;-85
2022/11/14 04:13:46;;;;;;;8.00;4.30;;;2.40;99.90;;;3.14;100.00;97910.06;5018292;28;20478;-86
2022/11/14 04:16:16;;;;;;;20.23;4.43;;;2.40;99.90;;;3.17;100.00;97910.59;5022463;28;20477;-87
2022/11/14 04:18:44;;;;;;;6.47;3.90;;;2.40;99.90;;;3.18;100.00;97912.22;5024086;28;20550;-86
2022/11/14 04:21:14;;;;;;;5.73;3.97;;;2.50;99.90;;;3.20;100.00;97912.88;5021862;28;20493;-86
2022/11/14 04:23:45;;;;;;;7.90;4.10;;;2.50;99.90;;;3.21;100.00;97922.25;5020312;28;20497;-86
2022/11/14 04:26:15;;;;;;;6.23;3.90;;;2.50;99.90;;;3.23;100.00;97917.75;5020949;28;20616;-86
2022/11/14 04:28:45;;;;;;;4.20;3.63;;;2.50;99.90;;;3.21;100.00;97917.09;5022139;28;20829;-86
2022/11/14 04:31:14;;;;;;;9.67;4.13;;;2.50;99.90;;;3.24;100.00;97923.72;5022679;28;20462;-87
2022/11/14 04:33:44;;;;;;;6.70;3.90;;;2.50;99.90;;;3.26;100.00;97914.91;5021880;28;20468;-87
2022/11/14 04:36:14;;;;;;;8.43;4.13;;;2.50;99.90;;;3.28;100.00;97919.91;5021065;28;20576;-86
2022/11/14 04:38:45;;;;;;;5.90;3.80;;;2.50;99.90;;;3.30;100.00;97917.97;5021760;28;20587;-87
2022/11/14 04:41:15;;;;;;;4.90;3.87;;;2.50;99.90;;;3.32;100.00;97918.66;5020352;28;20493;-85
2022/11/14 04:43:45;;;;;;;5.10;4.17;;;2.60;99.90;;;3.32;100.00;97911.72;5021994;28;20491;-86
2022/11/14 04:46:19;;;;;;;5.67;3.40;;;2.50;99.90;;;3.31;100.00;97912.69;5025239;28;20968;-86
2022/11/14 04:48:49;;;;;;;6.03;3.83;;;2.50;99.90;;;3.33;100.00;97918.50;5021985;28;20865;-88
2022/11/14 04:51:19;;;;;;;8.80;4.00;;;2.60;99.90;;;3.35;100.00;97919.19;5022006;28;20575;-86
2022/11/14 04:53:50;;;;;;;6.50;4.03;;;2.60;99.90;;;3.37;100.00;97909.50;5024995;28;20497;-87
2022/11/14 04:56:22;;;;;;;10.10;4.50;;;2.70;99.90;;;3.39;100.00;97911.97;5026610;28;20500;-87
2022/11/14 04:58:52;;;;;;;6.67;4.00;;;2.70;99.90;;;3.38;100.00;97895.63;5024084;28;20490;-86
2022/11/14 05:01:22;;;;;;;7.60;4.40;;;2.70;99.90;;;3.39;100.00;97886.13;5025425;28;20466;-86
2022/11/14 05:03:52;;;;;;;9.63;4.30;;;2.80;99.90;;;3.37;100.00;97878.50;5023880;28;20497;-87
2022/11/14 05:06:21;;;;;;;7.87;4.53;;;2.80;99.90;;;3.38;100.00;97874.97;5024240;28;20472;-87
2022/11/14 05:08:52;;;;;;;20.60;5.00;;;2.70;99.90;;;3.38;100.00;97871.56;5023074;28;20460;-87
2022/11/14 05:11:22;;;;;;;7.00;3.97;;;2.70;99.90;;;3.40;100.00;97870.44;5021993;28;20485;-86
2022/11/14 05:13:57;;;;;;;8.77;5.63;;;2.70;99.90;;;3.42;100.00;97871.13;5021425;28;20548;-87
2022/11/14 05:16:27;;;;;;;11.77;4.30;;;2.70;99.90;;;3.43;100.00;97862.44;5020074;28;21133;-88
2022/11/14 05:18:56;;;;;;;10.53;4.70;;;2.80;99.90;;;3.46;100.00;97859.56;5022951;28;20976;-87
2022/11/14 05:21:26;;;;;;;11.40;5.03;;;2.70;99.90;;;3.48;100.00;97857.63;5022890;28;20476;-88
2022/11/14 05:23:56;;;;;;;12.10;5.10;;;2.80;99.90;;;3.50;100.00;97860.88;5018953;28;20508;-88
2022/11/14 05:26:26;;;;;;;14.83;5.87;;;2.80;99.90;;;3.51;100.00;97859.91;5019772;28;21048;-86
2022/11/14 05:28:56;;;;;;;17.23;5.47;;;2.90;99.90;;;3.54;100.00;97862.19;5021097;28;20478;-88
2022/11/14 05:31:26;;;;;;;15.97;5.50;;;2.90;99.90;;;3.55;100.00;97861.25;5023094;28;20470;-87
2022/11/14 05:33:56;;;;;;;10.20;5.30;;;2.90;99.90;;;3.58;100.00;97865.28;5019519;28;20569;-88
2022/11/14 05:36:25;;;;;;;13.00;6.50;;;2.90;99.90;;;3.59;100.00;97866.94;5024503;28;20490;-87
2022/11/14 05:38:56;;;;;;;9.73;5.17;;;2.90;99.90;;;3.61;100.00;97874.56;5021764;28;20542;-87
2022/11/14 05:41:25;;;;;;;13.80;6.27;;;3.00;99.90;;;3.63;100.00;97862.28;5022346;28;20463;-87
2022/11/14 05:43:55;;;;;;;16.70;6.50;;;3.00;99.90;;;3.65;100.00;97871.50;5018120;28;20487;-86
2022/11/14 05:46:25;;;;;;;11.73;5.50;;;3.00;99.90;;;3.68;100.00;97873.00;5020670;28;20472;-87
2022/11/14 05:48:58;;;;;;;21.23;5.70;;;3.00;99.90;;;3.69;100.00;97877.19;5021813;28;20460;-86
2022/11/14 05:51:28;;;;;;;13.93;6.50;;;3.00;99.90;;;3.71;100.00;97873.53;5022982;28;20501;-87
2022/11/14 05:53:59;;;;;;;10.40;5.47;;;3.10;99.90;;;3.72;100.00;97866.53;5021523;28;20889;-87
2022/11/14 05:56:29;;;;;;;17.13;7.40;;;3.10;99.90;;;3.73;100.00;97874.16;5020437;28;20520;-82
2022/11/14 05:58:59;;;;;;;16.90;7.10;;;3.10;99.90;;;3.74;100.00;97869.81;5014925;28;20483;-88
2022/11/14 06:01:29;;;;;;;15.50;5.90;;;3.10;99.90;;;3.77;100.00;97854.81;5023372;28;20498;-88
2022/11/14 06:03:59;;;;;;;14.30;5.90;;;3.10;99.90;;;3.80;100.00;97848.53;5022877;28;20574;-87
2022/11/14 06:06:28;;;;;;;13.30;6.37;;;3.10;99.90;;;3.81;100.00;97839.81;5023379;28;20495;-88
2022/11/14 06:08:59;;;;;;;19.13;7.23;;;3.10;99.90;;;3.82;100.00;97836.25;5022655;28;20891;-89
2022/11/14 06:11:29;;;;;;;14.90;5.70;;;3.10;99.90;;;3.82;100.00;97842.25;5022008;28;20558;-88
2022/11/14 06:13:59;;;;;;;15.77;5.17;;;3.20;99.90;;;3.85;100.00;97841.16;5023088;28;20462;-87
2022/11/14 06:16:28;;;;;;;21.80;10.37;;;3.20;99.90;;;3.87;100.00;97849.56;5019340;28;20533;-79
2022/11/14 06:18:57;;;;;;;14.30;6.33;;;3.20;99.90;;;3.89;100.00;97837.28;5020166;28;20546;-90
2022/11/14 06:21:27;;;;;;;13.17;6.33;;;3.20;99.90;;;3.90;100.00;97838.91;5020564;28;21005;-89
2022/11/14 06:23:58;;;;;;;16.13;6.43;;;3.20;99.90;;;3.91;100.00;97835.38;5023345;28;20574;-87
2022/11/14 06:26:30;;;;;;;11.83;5.97;;;3.20;99.90;;;3.92;100.00;97837.78;5020768;28;20550;-86
2022/11/14 06:29:01;;;;;;;19.47;6.20;;;3.20;99.90;;;3.92;100.00;97842.97;5023020;28;20474;-87
2022/11/14 06:31:31;;;;;;;14.73;7.10;;;3.20;99.90;;;3.94;100.00;97840.22;5021601;28;20477;-86
2022/11/14 06:34:00;;;;;;;14.57;6.60;;;3.20;99.90;;;3.93;100.00;97828.25;5020745;28;20489;-86
2022/11/14 06:36:31;;;;;;;10.73;6.17;;;3.20;99.90;;;3.88;100.00;97815.78;5018891;28;20548;-87
2022/11/14 06:39:02;;;;;;;13.03;7.63;;;3.20;99.90;;;3.88;100.00;97810.63;5018895;28;20487;-86
2022/11/14 06:41:31;;;;;;;13.50;7.10;;;3.20;99.90;;;3.93;100.00;97813.56;5019426;28;20496;-86
2022/11/14 06:44:01;;;;;;;18.67;7.50;;;3.30;99.90;;;3.97;100.00;97816.66;5018411;28;21030;-86
2022/11/14 06:46:30;;;;;;;15.73;7.67;;;3.40;99.90;;;4.00;100.00;97821.53;5016181;28;20437;-86
2022/11/14 06:49:00;;;;;;;12.07;7.50;;;3.40;99.90;;;4.02;100.00;97837.72;5017985;28;20472;-87
2022/11/14 06:51:29;;;;;;;16.40;7.43;;;3.40;99.90;;;4.04;100.00;97859.88;5018009;28;20840;-87
2022/11/14 06:54:00;;;;;;;13.43;7.10;;;3.40;99.90;;;4.04;100.00;97851.31;5017024;28;20519;-87
2022/11/14 06:56:30;;;;;;;18.77;7.80;;;3.40;99.90;;;4.07;100.00;97863.94;5017425;28;20477;-86
2022/11/14 06:58:59;;;;;;;16.37;6.93;;;3.40;99.90;;;4.10;100.00;97868.78;5018414;28;20555;-85
2022/11/14 07:01:28;;;;;;;18.87;7.70;;;3.40;99.90;;;4.12;100.00;97860.91;5018535;28;20474;-86
2022/11/14 07:03:59;;;;;;;16.93;7.63;;;3.40;99.90;;;4.14;100.00;97861.53;5018833;28;20490;-86
2022/11/14 07:06:30;;;;;;;12.37;6.87;;;3.40;99.90;;;4.12;100.00;97859.13;5018606;28;20544;-86
2022/11/14 07:09:01;;;;;;;15.70;7.20;;;3.40;99.90;;;4.13;100.00;97855.56;5019729;28;21198;-86
2022/11/14 07:11:32;;;;;;;17.00;7.17;;;3.50;99.90;;;4.14;100.00;97856.38;5020996;28;20475;-86
2022/11/14 07:14:04;;;;;;;16.83;6.97;;;3.50;99.90;;;4.16;100.00;97857.88;5021570;28;20502;-86
2022/11/14 07:16:35;;;;;;;14.40;8.43;;;3.50;99.90;;;4.14;100.00;97833.09;5020307;28;20899;-86
2022/11/14 07:19:09;;;;;;;14.50;7.97;;;3.50;99.90;;;4.19;100.00;97838.63;5022454;28;20456;-85
2022/11/14 07:21:38;;;;;;;11.97;7.30;;;3.60;99.90;;;4.24;100.00;97842.38;5020503;28;20491;-86
2022/11/14 07:24:11;;;;;;;12.30;7.53;;;3.70;99.90;;;4.25;100.00;97836.25;5019585;28;20493;-87
2022/11/14 07:26:40;;;;;;;9.13;5.40;;;3.70;99.90;;;4.29;100.00;97831.56;5021234;28;20473;-86
2022/11/14 07:29:09;;;;;;;11.27;5.80;;;3.70;99.90;;;4.31;100.00;97833.03;5022018;28;20826;-86
2022/11/14 07:31:40;;;;;;;15.03;7.60;;;3.70;99.90;;;4.36;100.00;97828.22;5022882;28;20472;-85
2022/11/14 07:34:11;;;;;;;14.50;6.77;;;3.70;99.90;;;4.39;100.00;97825.31;5021454;28;20550;-86
2022/11/14 07:36:40;;;;;;;10.93;6.93;;;3.80;99.90;;;4.43;100.00;97826.66;5021373;28;20513;-87
2022/11/14 07:39:10;;;;;;;11.93;6.90;;;3.80;99.90;;;4.47;100.00;97832.34;5021104;28;20908;-87
2022/11/14 07:41:40;;;;;;;12.80;7.07;;;3.80;99.90;;;4.49;100.00;97836.38;5021538;28;20468;-87
2022/11/14 07:44:10;;;;;;;17.47;7.07;;;3.80;99.90;;;4.52;100.00;97836.06;5021674;28;20574;-88
2022/11/14 07:46:40;;;;;;;14.90;7.20;;;3.90;99.90;;;4.55;100.00;97834.94;5019264;28;20957;-86
2022/11/14 07:49:10;;;;;;;16.90;7.30;;;3.90;99.90;;;4.56;100.00;97832.22;5019850;28;20803;-85
2022/11/14 07:51:39;;;;;;;13.00;7.40;;;4.00;99.90;;;4.59;100.00;97828.50;5019895;28;20517;-86
2022/11/14 07:54:15;;;;;;;10.63;5.83;;;4.00;99.90;;;4.63;100.00;97837.59;5019391;28;20970;-87
2022/11/14 07:56:45;;;;;;;11.27;6.97;;;4.00;99.90;;;4.65;100.00;97834.84;5018544;28;20542;-86
2022/11/14 07:59:14;;;;;;;12.70;7.20;;;4.00;99.90;;;4.68;100.00;97839.72;5022683;28;20465;-86
2022/11/14 08:01:44;;;;;;;11.10;6.90;;;4.10;99.90;;;4.70;100.00;97842.94;5020699;28;20498;-87
2022/11/14 08:04:14;;;;;;;12.87;6.60;;;4.10;99.90;;;4.72;100.00;97847.00;5019540;28;20594;-86
2022/11/14 08:06:44;;;;;;;12.50;6.67;;;4.20;99.90;;;4.75;100.00;97840.72;5019606;28;20473;-86
2022/11/14 08:09:16;;;;;;;16.30;6.90;;;4.30;99.90;;;4.75;100.00;97843.31;5019544;28;20514;-86
2022/11/14 08:11:48;;;;;;;11.07;6.13;;;4.20;99.90;;;4.75;100.00;97849.31;5017888;28;20900;-87
2022/11/14 08:14:18;;;;;;;13.00;5.87;;;4.20;99.90;;;4.77;100.00;97849.94;5017381;28;20493;-86
2022/11/14 08:16:49;;;;;;;14.20;6.90;;;4.20;99.90;;;4.78;100.00;97856.75;5019157;28;20836;-87
2022/11/14 08:19:20;;;;;;;16.00;6.90;;;4.10;99.90;;;4.78;100.00;97838.63;5020850;28;20468;-86
2022/11/14 08:21:50;;;;;;;22.30;7.10;;;4.10;99.90;;;4.80;100.00;97848.81;5017015;28;20463;-86
2022/11/14 08:24:21;;;;;;;14.40;6.17;;;4.10;99.90;;;4.80;100.00;97839.28;5016936;28;21014;-87
2022/11/14 08:26:50;;;;;;;14.53;7.40;;;4.10;99.90;;;4.80;100.00;97838.47;5019937;28;20484;-87
2022/11/14 08:29:20;;;;;;;12.23;6.90;;;4.10;99.90;;;4.82;100.00;97831.34;5019279;28;20497;-86
2022/11/14 08:31:50;;;;;;;11.00;6.27;;;4.30;99.90;;;4.84;100.00;97840.59;5019110;28;20534;-86
2022/11/14 08:34:29;;;;;;;12.57;6.93;;;4.20;99.90;;;4.87;100.00;97839.47;5017660;28;20509;-86
2022/11/14 08:36:58;;;;;;;18.63;7.10;;;4.30;99.90;;;4.89;100.00;97838.34;5018781;28;20619;-86
2022/11/14 08:39:29;;;;;;;12.97;7.37;;;4.20;99.90;;;4.92;100.00;97842.41;5016721;28;20504;-85
2022/11/14 08:42:01;;;;;;;16.60;6.87;;;4.30;99.90;;;4.95;100.00;97839.50;5017388;28;20458;-86
2022/11/14 08:44:30;;;;;;;13.50;5.70;;;4.30;99.90;;;4.98;100.00;97852.13;5017350;28;20486;-86
2022/11/14 08:46:59;;;;;;;13.20;7.33;;;4.30;99.90;;;5.01;100.00;97846.63;5017141;28;20548;-86
2022/11/14 08:49:29;;;;;;;13.17;6.60;;;4.40;99.90;;;5.03;100.00;97847.31;5015036;28;20485;-85
2022/11/14 08:52:00;;;;;;;14.47;6.60;;;4.40;99.90;;;5.05;100.00;97840.19;5013851;28;20996;-86
2022/11/14 08:54:31;;;;;;;17.13;7.30;;;4.40;99.90;;;5.10;100.00;97845.72;5016696;28;21142;-86
2022/11/14 08:57:03;;;;;;;20.97;9.50;;;4.50;99.90;;;5.13;100.00;97849.75;5016552;28;20457;-86
2022/11/14 08:59:34;;;;;;;16.53;8.87;;;4.50;99.90;;;5.16;100.00;97849.44;5019815;28;20525;-87
2022/11/14 09:02:03;;;;;;;17.90;7.60;;;4.60;99.90;;;5.18;100.00;97843.13;5022662;28;20921;-86
2022/11/14 09:04:34;;;;;;;23.00;10.40;;;4.60;99.90;;;5.21;100.00;97835.03;5024012;28;20474;-87
2022/11/14 09:07:04;;;;;;;19.90;10.00;;;4.60;99.90;;;5.25;100.00;97832.94;5021784;28;20485;-86
2022/11/14 09:09:37;;;;;;;19.53;8.97;;;4.60;99.90;;;5.28;100.00;97835.19;5023626;28;20519;-86
2022/11/14 09:12:08;;;;;;;20.00;9.40;;;4.70;99.90;;;5.32;100.00;97839.09;5020623;28;20533;-86
2022/11/14 09:14:38;;;;;;;20.03;9.17;;;4.70;99.90;;;5.33;100.00;97836.38;5023509;28;21059;-86
2022/11/14 09:17:07;;;;;;;17.13;8.63;;;4.70;99.90;;;5.35;100.00;97836.19;5021562;28;20470;-86
2022/11/14 09:19:37;;;;;;;22.90;9.60;;;4.70;99.90;;;5.40;100.00;97837.34;5019650;28;20490;-86
2022/11/14 09:22:06;;;;;;;21.47;9.77;;;4.80;99.90;;;5.41;100.00;97838.97;5020873;28;20474;-85
2022/11/14 09:24:38;;;;;;;21.53;9.80;;;4.80;99.90;;;5.45;100.00;97850.63;5022996;28;20470;-87
2022/11/14 09:27:09;;;;;;;26.07;9.10;;;4.80;99.90;;;5.48;100.00;97847.72;5021982;28;21496;-86
2022/11/14 09:29:39;;;;;;;17.70;9.20;;;4.90;99.90;;;5.52;100.00;97846.44;5022926;28;20502;-87
2022/11/14 09:32:09;;;;;;;19.97;9.70;;;4.90;99.90;;;5.56;100.00;97852.09;5023826;28;20497;-86
2022/11/14 09:34:41;;;;;;;16.53;9.10;;;4.90;99.90;;;5.58;100.00;97851.00;5022915;28;21371;-86
2022/11/14 09:37:12;;;;;;;16.40;8.00;;;5.00;99.90;;;5.62;100.00;97850.66;5019771;28;20482;-86
2022/11/14 09:39:45;;;;;;;24.47;8.70;;;5.00;99.90;;;5.66;100.00;97857.16;5021918;28;21260;-87
2022/11/14 09:42:41;;;;;;;18.27;9.67;;;5.10;99.90;;;5.70;100.00;97858.44;5021824;28;20469;-86
2022/11/14 09:45:16;;;;;;;18.13;8.63;;;5.20;99.90;;;5.72;100.00;97846.94;5022850;28;20493;-86
2022/11/14 09:47:48;;;;;;;17.37;8.63;;;5.20;99.90;;;5.75;100.00;97849.22;5022602;28;20477;-85
2022/11/14 09:50:26;;;;;;;20.87;8.90;;;5.20;99.90;;;5.79;100.00;97847.13;5020889;28;20465;-87
2022/11/14 09:53:02;;;;;;;20.30;9.93;;;5.20;99.90;;;5.82;100.00;97846.78;5023495;28;20465;-86
2022/11/14 09:55:36;;;;;;;23.27;9.80;;;5.30;99.90;;;5.85;100.00;97852.47;5021861;28;20458;-87
2022/11/14 09:58:12;;;;;;;16.80;8.43;;;5.30;99.90;;;5.89;100.00;97847.78;5020711;28;20465;-86
2022/11/14 10:00:54;;;;;;;23.97;9.57;;;5.40;99.90;;;5.90;100.00;97849.44;5021248;28;20473;-86
2022/11/14 10:03:37;;;;;;;30.80;9.23;;;5.40;99.90;;;5.92;100.00;97837.09;5019342;28;20841;-86
2022/11/14 10:06:27;;;;;;;19.67;9.33;;;5.50;99.90;;;5.96;100.00;97830.59;5020150;28;20491;-86
2022/11/14 10:09:51;;;;;;;20.70;9.23;;;5.50;99.90;;;6.00;100.00;97821.53;5019833;28;20517;-87
2022/11/14 10:12:33;;;;;;;18.70;9.07;;;5.50;99.90;;;6.02;100.00;97829.94;5019558;28;20467;-86
2022/11/14 10:15:22;;;;;;;18.83;10.00;;;5.50;99.90;;;6.03;100.00;97823.78;5020047;28;20538;-86
2022/11/14 10:18:19;;;;;;;22.77;9.80;;;5.50;99.90;;;6.06;100.00;97824.28;5021209;28;20509;-86
2022/11/14 10:20:56;;;;;;;23.53;10.60;;;5.50;99.90;;;6.09;100.00;97820.53;5020038;28;20463;-85
2022/11/14 10:23:42;;;;;;;24.50;11.40;;;5.50;99.90;;;6.11;100.00;97818.56;5021326;28;20455;-86
2022/11/14 10:26:23;;;;;;;20.30;9.90;;;5.60;99.90;;;6.14;100.00;97810.47;5020182;28;20551;-86
2022/11/14 10:29:41;;;;;;;18.23;10.07;;;5.60;99.90;;;6.17;100.00;97807.53;5021268;28;20472;-87
2022/11/14 10:32:32;;;;;;;19.83;9.20;;;5.70;99.90;;;6.20;100.00;97804.63;5013774;28;20966;-87
2022/11/14 10:35:11;;;;;;;17.03;9.53;;;5.70;99.90;;;6.21;100.00;97800.25;5022728;28;20463;-85
2022/11/14 10:37:51;;;;;;;17.87;9.60;;;5.70;99.90;;;6.24;100.00;97800.72;5020596;28;20573;-87
2022/11/14 10:40:26;;;;;;;18.93;10.00;;;5.80;99.90;;;6.26;100.00;97795.34;5021679;28;20462;-86
2022/11/14 10:43:05;;;;;;;19.40;10.60;;;5.70;99.90;;;6.29;100.00;97803.59;5017262;28;20552;-85